createdAt,value
2023-02-27T00:02:17.505Z,12.63
2023-02-27T00:04:46.143Z,10.80
2023-02-27T00:07:14.015Z,14.10
2023-02-27T00:09:42.118Z,10.27
2023-02-27T00:12:10.332Z,14.80
2023-02-27T00:14:40.420Z,12.17
2023-02-27T00:17:08.100Z,12.80
2023-02-27T00:19:35.628Z,24.73
2023-02-27T00:22:03.116Z,21.83
2023-02-27T00:24:31.084Z,23.77
2023-02-27T00:26:58.818Z,16.10
2023-02-27T00:29:26.267Z,18.87
2023-02-27T00:31:53.912Z,21.23
2023-02-27T00:34:21.497Z,21.57
2023-02-27T00:36:49.089Z,13.40
2023-02-27T00:39:16.558Z,12.73
2023-02-27T00:41:44.098Z,17.27
2023-02-27T00:44:11.519Z,13.00
2023-02-27T00:46:39.029Z,11.43
2023-02-27T00:49:06.786Z,14.80
2023-02-27T00:51:34.313Z,10.03
2023-02-27T00:54:04.108Z,16.53
2023-02-27T00:56:31.636Z,11.23
2023-02-27T00:58:59.169Z,10.00
2023-02-27T01:01:26.937Z,16.10
2023-02-27T01:03:56.896Z,14.90
2023-02-27T01:06:24.472Z,12.50
2023-02-27T01:08:51.963Z,14.77
2023-02-27T01:11:19.807Z,12.73
2023-02-27T01:13:47.379Z,14.77
2023-02-27T01:16:15.457Z,13.83
2023-02-27T01:18:43.049Z,17.00
2023-02-27T01:21:10.612Z,14.73
2023-02-27T01:23:38.104Z,11.10
2023-02-27T01:26:05.749Z,13.80
2023-02-27T01:28:34.911Z,8.70
2023-02-27T01:31:02.551Z,9.00
2023-02-27T01:33:32.481Z,8.27
2023-02-27T01:36:01.431Z,13.13
2023-02-27T01:38:28.955Z,13.17
2023-02-27T01:40:57.376Z,10.77
2023-02-27T01:43:25.031Z,8.63
2023-02-27T01:45:53.709Z,6.47
2023-02-27T01:48:37.707Z,6.80
2023-02-27T01:51:16.176Z,6.83
2023-02-27T01:53:46.792Z,6.43
2023-02-27T01:56:20.839Z,5.60
2023-02-27T01:58:51.446Z,6.17
2023-02-27T02:01:21.191Z,6.43
2023-02-27T02:04:30.587Z,7.10
2023-02-27T02:07:07.640Z,9.53
2023-02-27T02:09:48.976Z,10.27
2023-02-27T02:12:19.800Z,10.43
2023-02-27T02:14:47.351Z,14.93
2023-02-27T02:17:26.807Z,18.30
2023-02-27T02:20:08.922Z,41.53
2023-02-27T02:23:16.186Z,21.10
2023-02-27T02:26:25.083Z,24.77
2023-02-27T02:29:19.544Z,27.70
2023-02-27T02:32:32.993Z,32.40
2023-02-27T02:35:36.634Z,35.53
2023-02-27T02:38:25.046Z,44.57
2023-02-27T02:41:13.515Z,38.70
2023-02-27T02:43:57.380Z,26.10
2023-02-27T02:46:58.196Z,24.93
2023-02-27T02:49:57.993Z,25.43
2023-02-27T02:52:44.857Z,26.27
2023-02-27T02:55:33.654Z,27.10
2023-02-27T02:58:15.496Z,19.43
2023-02-27T03:00:59.359Z,27.03
2023-02-27T03:03:46.043Z,23.63
2023-02-27T03:06:25.336Z,33.70
2023-02-27T03:09:00.117Z,22.73
2023-02-27T03:11:33.337Z,16.67
2023-02-27T03:14:25.613Z,19.10
2023-02-27T03:17:01.866Z,15.10
2023-02-27T03:19:41.757Z,15.40
2023-02-27T03:22:15.742Z,14.47
2023-02-27T03:25:06.929Z,13.90
2023-02-27T03:27:46.050Z,14.97
2023-02-27T03:30:37.269Z,14.27
2023-02-27T03:33:30.585Z,24.63
2023-02-27T03:36:15.673Z,32.40
2023-02-27T03:38:54.762Z,25.63
2023-02-27T03:42:04.490Z,25.67
2023-02-27T03:45:39.379Z,20.73
2023-02-27T03:48:09.076Z,18.50
2023-02-27T03:50:38.433Z,16.30
2023-02-27T03:53:37.933Z,18.27
2023-02-27T03:56:08.926Z,12.20
2023-02-27T03:58:36.974Z,17.77
2023-02-27T04:01:04.796Z,23.10
2023-02-27T04:03:49.843Z,21.40
2023-02-27T04:06:50.813Z,22.20
2023-02-27T04:09:57.901Z,18.03
2023-02-27T04:13:02.044Z,18.43
2023-02-27T04:16:00.713Z,16.43
2023-02-27T04:18:56.938Z,17.77
2023-02-27T04:21:34.319Z,15.83
2023-02-27T04:24:35.498Z,19.63
2023-02-27T04:27:19.367Z,15.07
2023-02-27T04:30:29.181Z,16.37
2023-02-27T04:33:13.286Z,19.20
2023-02-27T04:35:53.259Z,23.47
2023-02-27T04:39:03.905Z,22.33
2023-02-27T04:42:06.943Z,24.80
2023-02-27T04:44:37.021Z,28.97
2023-02-27T04:47:10.850Z,40.50
2023-02-27T04:49:47.106Z,30.20
2023-02-27T04:52:30.176Z,27.67
2023-02-27T04:55:15.296Z,31.67
2023-02-27T04:57:52.101Z,27.00
2023-02-27T05:00:23.627Z,10.90
2023-02-27T05:02:59.920Z,15.97
2023-02-27T05:05:32.886Z,2.30
2023-02-27T05:08:55.403Z,8.00
2023-02-27T05:11:38.710Z,5.60
2023-02-27T05:17:39.295Z,3.70
2023-02-27T05:20:07.684Z,3.83
2023-02-27T05:22:59.850Z,3.47
2023-02-27T05:25:58.912Z,3.33
2023-02-27T05:28:56.012Z,1.90
2023-02-27T05:48:40.233Z,3.63
2023-02-27T05:51:11.823Z,6.80
2023-02-27T05:53:51.246Z,7.43
2023-02-27T05:56:22.264Z,7.17
2023-02-27T05:59:01.323Z,5.63
2023-02-27T06:01:28.812Z,7.43
2023-02-27T06:03:57.762Z,5.03
2023-02-27T06:06:26.116Z,7.00
2023-02-27T06:08:53.719Z,8.43
2023-02-27T06:11:21.182Z,8.47
2023-02-27T06:13:48.633Z,12.80
2023-02-27T06:16:17.200Z,8.73
2023-02-27T06:18:44.755Z,12.73
2023-02-27T06:21:14.275Z,15.97
2023-02-27T06:23:41.872Z,10.40
2023-02-27T06:26:14.144Z,11.00
2023-02-27T06:28:42.611Z,15.60
2023-02-27T06:31:10.044Z,14.73
2023-02-27T06:33:40.856Z,14.03
2023-02-27T06:36:08.442Z,10.60
2023-02-27T06:38:36.902Z,8.13
2023-02-27T06:41:04.511Z,10.13
2023-02-27T06:43:34.749Z,14.00
2023-02-27T06:46:02.659Z,8.80
2023-02-27T06:48:30.153Z,5.60
2023-02-27T06:50:58.109Z,7.00
2023-02-27T06:53:26.121Z,5.57
2023-02-27T06:55:53.587Z,6.13
2023-02-27T06:58:21.114Z,7.60
2023-02-27T07:00:48.622Z,7.77
2023-02-27T07:03:16.212Z,6.13
2023-02-27T07:05:44.763Z,8.53
2023-02-27T07:08:12.295Z,3.40
2023-02-27T07:10:40.311Z,5.37
2023-02-27T07:13:07.694Z,3.80
2023-02-27T07:15:35.730Z,5.27
2023-02-27T07:18:03.427Z,3.03
2023-02-27T07:20:30.932Z,5.93
2023-02-27T07:22:58.499Z,4.70
2023-02-27T07:25:26.007Z,5.53
2023-02-27T07:27:53.473Z,5.60
2023-02-27T07:30:21.045Z,4.83
2023-02-27T07:32:50.777Z,6.57
2023-02-27T07:35:19.500Z,6.63
2023-02-27T07:37:48.235Z,7.57
2023-02-27T07:40:16.650Z,7.07
2023-02-27T07:42:44.205Z,5.00
2023-02-27T07:45:13.191Z,2.90
2023-02-27T07:47:40.708Z,6.17
2023-02-27T07:50:09.299Z,6.73
2023-02-27T07:52:36.705Z,6.13
2023-02-27T07:55:04.229Z,4.57
2023-02-27T07:57:53.910Z,5.30
2023-02-27T08:00:22.296Z,6.50
2023-02-27T08:02:50.349Z,3.23
2023-02-27T08:05:18.433Z,4.47
2023-02-27T08:07:46.012Z,6.07
2023-02-27T08:10:16.205Z,4.87
2023-02-27T08:12:44.840Z,5.27
2023-02-27T08:15:12.797Z,4.33
2023-02-27T08:17:40.280Z,3.17
2023-02-27T08:20:11.334Z,5.57
2023-02-27T08:22:38.958Z,4.77
2023-02-27T08:25:10.793Z,4.67
2023-02-27T08:27:39.344Z,4.80
2023-02-27T08:30:09.360Z,3.67
2023-02-27T08:32:38.660Z,4.37
2023-02-27T08:35:07.475Z,4.77
2023-02-27T08:37:35.020Z,5.83
2023-02-27T08:40:02.517Z,9.87
2023-02-27T08:42:30.359Z,5.83
2023-02-27T08:44:58.273Z,2.83
2023-02-27T08:47:26.548Z,5.67
2023-02-27T08:49:56.653Z,4.57
2023-02-27T08:52:25.085Z,5.23
2023-02-27T08:54:52.612Z,3.33
2023-02-27T08:57:20.457Z,4.97
2023-02-27T08:59:48.310Z,6.47
2023-02-27T09:02:16.056Z,8.20
2023-02-27T09:04:43.516Z,7.67
2023-02-27T09:07:12.238Z,6.63
2023-02-27T09:09:39.814Z,8.17
2023-02-27T09:12:08.138Z,11.70
2023-02-27T09:14:37.356Z,6.90
2023-02-27T09:17:06.060Z,9.53
2023-02-27T09:19:36.325Z,6.67
2023-02-27T09:22:05.952Z,30.93
2023-02-27T09:24:33.475Z,16.57
2023-02-27T09:27:01.939Z,8.13
2023-02-27T09:29:32.124Z,10.50
2023-02-27T09:32:04.743Z,8.17
2023-02-27T09:34:35.643Z,4.83
2023-02-27T09:37:03.207Z,7.00
2023-02-27T09:39:30.933Z,9.13
2023-02-27T09:42:24.304Z,12.43
2023-02-27T09:44:57.605Z,6.93
2023-02-27T09:47:50.841Z,11.77
2023-02-27T09:50:41.056Z,8.70
2023-02-27T09:53:37.765Z,6.23
2023-02-27T09:56:29.964Z,5.67
2023-02-27T09:59:09.221Z,9.47
2023-02-27T10:02:27.018Z,9.47
2023-02-27T10:05:30.699Z,11.67
2023-02-27T10:08:30.348Z,11.07
2023-02-27T10:11:12.198Z,8.93
2023-02-27T10:14:33.986Z,12.43
2023-02-27T10:17:12.119Z,5.07
2023-02-27T10:19:41.034Z,8.67
2023-02-27T10:22:30.947Z,9.30
2023-02-27T10:25:29.740Z,8.80
2023-02-27T10:28:16.635Z,7.50
2023-02-27T10:31:24.204Z,5.17
2023-02-27T10:33:53.627Z,4.57
2023-02-27T10:36:33.620Z,7.90
2023-02-27T10:39:12.523Z,9.17
2023-02-27T10:41:41.654Z,5.17
2023-02-27T10:44:14.628Z,4.05
2023-02-27T10:46:43.168Z,4.43
2023-02-27T10:49:22.171Z,4.45
2023-02-27T10:52:13.509Z,5.57
2023-02-27T10:54:43.077Z,6.53
2023-02-27T10:57:30.415Z,10.43
2023-02-27T11:00:28.257Z,10.27
2023-02-27T11:02:55.950Z,7.75
2023-02-27T11:05:32.215Z,5.63
2023-02-27T11:08:31.409Z,8.15
2023-02-27T11:11:07.150Z,15.52
2023-02-27T11:13:45.521Z,8.80
2023-02-27T11:16:21.854Z,10.80
2023-02-27T11:18:52.378Z,12.57
2023-02-27T11:21:24.801Z,19.27
2023-02-27T11:24:17.989Z,10.13
2023-02-27T11:27:03.729Z,21.02
2023-02-27T11:29:35.421Z,13.45
2023-02-27T11:32:15.052Z,15.77
2023-02-27T11:34:50.778Z,19.17
2023-02-27T11:37:35.469Z,22.27
2023-02-27T11:40:14.747Z,29.10
2023-02-27T11:42:50.421Z,24.13
2023-02-27T11:46:13.989Z,23.33
2023-02-27T11:48:28.421Z,26.67
2023-02-27T11:51:26.731Z,21.70
2023-02-27T11:54:01.036Z,23.88
2023-02-27T11:56:41.904Z,23.42
2023-02-27T11:59:15.003Z,24.77
2023-02-27T12:02:03.780Z,27.60
2023-02-27T12:04:55.842Z,21.88
2023-02-27T12:08:19.958Z,23.58
2023-02-27T12:11:14.229Z,24.70
2023-02-27T12:13:58.092Z,28.75
2023-02-27T12:16:37.148Z,23.52
2023-02-27T12:19:22.763Z,25.88
2023-02-27T12:22:06.822Z,28.55
2023-02-27T12:24:47.258Z,25.23
2023-02-27T12:27:34.075Z,24.50
2023-02-27T12:30:28.688Z,30.23
2023-02-27T12:33:18.403Z,30.33
2023-02-27T12:35:56.203Z,28.88
2023-02-27T12:38:24.807Z,45.83
2023-02-27T12:40:54.709Z,27.23
2023-02-27T12:44:06.708Z,26.30
2023-02-27T12:46:55.735Z,29.42
2023-02-27T12:49:52.940Z,27.20
2023-02-27T12:53:01.722Z,32.78
2023-02-27T12:55:54.199Z,24.80
2023-02-27T12:58:58.487Z,39.38
2023-02-27T13:01:37.538Z,30.90
2023-02-27T13:04:45.092Z,30.80
2023-02-27T13:07:37.499Z,36.80
2023-02-27T13:10:34.979Z,33.78
2023-02-27T13:13:46.803Z,42.42
2023-02-27T13:16:37.208Z,36.30
2023-02-27T13:19:24.470Z,39.30
2023-02-27T13:22:29.326Z,32.92
2023-02-27T13:25:01.504Z,24.33
2023-02-27T13:27:36.438Z,31.80
2023-02-27T13:30:03.848Z,32.92
2023-02-27T13:33:03.197Z,44.10
2023-02-27T13:36:13.964Z,32.15
2023-02-27T13:38:48.973Z,32.58
2023-02-27T13:41:25.646Z,37.30
2023-02-27T13:43:57.922Z,44.95
2023-02-27T13:46:33.785Z,31.73
2023-02-27T13:49:20.015Z,44.63
2023-02-27T13:51:56.826Z,34.60
2023-02-27T13:54:40.761Z,34.05
2023-02-27T13:57:19.701Z,37.75
2023-02-27T14:00:21.257Z,39.03
2023-02-27T14:03:25.893Z,53.47
2023-02-27T14:05:57.653Z,34.10
2023-02-27T14:08:28.386Z,34.95
2023-02-27T14:11:13.459Z,26.17
2023-02-27T14:13:49.978Z,41.58
2023-02-27T14:16:41.729Z,43.95
2023-02-27T14:19:22.730Z,29.67
2023-02-27T14:22:12.216Z,33.65
2023-02-27T14:25:01.047Z,45.33
2023-02-27T14:27:57.154Z,31.95
2023-02-27T14:31:01.560Z,33.92
2023-02-27T14:33:42.412Z,31.88
2023-02-27T14:36:27.701Z,34.63
2023-02-27T14:38:58.025Z,30.92
2023-02-27T14:41:48.681Z,35.25
2023-02-27T14:44:25.632Z,34.75
2023-02-27T14:46:56.349Z,30.88
2023-02-27T14:49:33.957Z,31.05
2023-02-27T14:52:25.433Z,33.45
2023-02-27T14:54:53.799Z,37.63
2023-02-27T14:57:29.318Z,40.33
2023-02-27T14:59:56.902Z,40.83
2023-02-27T15:02:30.725Z,38.33
2023-02-27T15:05:03.701Z,31.10
2023-02-27T15:07:35.165Z,38.17
2023-02-27T15:10:10.133Z,39.00
2023-02-27T15:12:39.850Z,38.67
2023-02-27T15:15:10.137Z,36.88
2023-02-27T15:17:44.043Z,33.35
2023-02-27T15:20:36.326Z,40.08
2023-02-27T15:23:28.331Z,32.03
2023-02-27T15:25:59.318Z,31.85
2023-02-27T15:28:38.456Z,37.63
2023-02-27T15:31:08.521Z,36.50
2023-02-27T15:33:36.271Z,39.67
2023-02-27T15:36:04.161Z,40.67
2023-02-27T15:38:35.905Z,38.30
2023-02-27T15:41:05.232Z,36.63
2023-02-27T15:43:33.100Z,33.80
2023-02-27T15:46:00.972Z,44.25
2023-02-27T15:48:48.799Z,42.83
2023-02-27T15:51:16.633Z,44.23
2023-02-27T15:53:50.490Z,38.77
2023-02-27T15:56:25.685Z,26.70
2023-02-27T15:59:00.238Z,33.73
2023-02-27T16:01:38.969Z,25.17
2023-02-27T16:04:20.921Z,41.97
2023-02-27T16:07:25.627Z,39.63
2023-02-27T16:10:08.782Z,33.30
2023-02-27T16:12:39.089Z,35.40
2023-02-27T16:15:31.571Z,29.87
2023-02-27T16:18:23.597Z,40.20
2023-02-27T16:20:57.346Z,39.10
2023-02-27T16:23:34.248Z,41.73
2023-02-27T16:26:27.575Z,97.67
2023-02-27T16:29:04.807Z,96.87
2023-02-27T16:31:47.812Z,62.47
2023-02-27T16:34:44.629Z,36.07
2023-02-27T16:37:40.509Z,47.70
2023-02-27T16:40:17.011Z,29.57
2023-02-27T16:42:50.944Z,30.37
2023-02-27T16:45:25.683Z,46.33
2023-02-27T16:47:58.549Z,50.93
2023-02-27T16:50:36.279Z,40.03
2023-02-27T16:53:04.811Z,39.83
2023-02-27T16:55:33.941Z,37.63
2023-02-27T16:58:01.731Z,37.00
2023-02-27T17:00:36.553Z,34.53
2023-02-27T17:03:04.736Z,41.77
2023-02-27T17:05:34.921Z,40.93
2023-02-27T17:08:05.854Z,35.03
2023-02-27T17:10:35.116Z,42.50
2023-02-27T17:13:05.570Z,53.77
2023-02-27T17:15:33.815Z,61.40
2023-02-27T17:18:01.545Z,56.40
2023-02-27T17:20:31.701Z,42.97
2023-02-27T17:22:59.230Z,53.03
2023-02-27T17:25:32.178Z,54.83
2023-02-27T17:28:02.793Z,62.33
2023-02-27T17:30:32.886Z,67.73
2023-02-27T17:33:02.076Z,57.97
2023-02-27T17:35:33.158Z,69.73
2023-02-27T17:38:01.919Z,65.20
2023-02-27T17:40:30.210Z,50.47
2023-02-27T17:42:59.276Z,56.77
2023-02-27T17:45:29.160Z,90.50
2023-02-27T17:47:57.642Z,93.73
2023-02-27T17:50:27.432Z,87.13
2023-02-27T17:52:58.816Z,78.87
2023-02-27T17:55:26.593Z,62.67
2023-02-27T17:57:55.811Z,66.70
2023-02-27T18:00:26.603Z,58.53
2023-02-27T18:02:54.467Z,60.63
2023-02-27T18:05:22.136Z,86.07
2023-02-27T18:07:50.040Z,120.00
2023-02-27T18:10:23.800Z,61.60
2023-02-27T18:12:55.026Z,51.23
2023-02-27T18:15:25.142Z,57.23
2023-02-27T18:17:52.646Z,55.37
2023-02-27T18:20:22.061Z,51.70
2023-02-27T18:22:49.581Z,70.13
2023-02-27T18:25:17.641Z,68.27
2023-02-27T18:27:45.131Z,67.07
2023-02-27T18:30:14.048Z,60.93
2023-02-27T18:32:42.591Z,60.27
2023-02-27T18:35:16.102Z,64.60
2023-02-27T18:37:44.878Z,77.27
2023-02-27T18:40:34.554Z,92.17
2023-02-27T18:43:03.750Z,61.37
2023-02-27T18:45:51.848Z,55.73
2023-02-27T18:48:22.467Z,59.77
2023-02-27T18:50:53.300Z,57.70
2023-02-27T18:53:23.111Z,50.73
2023-02-27T18:55:52.070Z,55.40
2023-02-27T18:58:21.656Z,53.57
2023-02-27T19:01:17.625Z,42.53
2023-02-27T19:03:45.480Z,35.53
2023-02-27T19:06:17.782Z,44.90
2023-02-27T19:08:46.777Z,48.83
2023-02-27T19:11:34.811Z,38.80
2023-02-27T19:14:09.821Z,38.33
2023-02-27T19:16:37.854Z,42.70
2023-02-27T19:19:12.319Z,40.60
2023-02-27T19:21:42.851Z,47.30
2023-02-27T19:24:14.792Z,41.43
2023-02-27T19:26:42.384Z,35.27
2023-02-27T19:29:10.177Z,36.40
2023-02-27T19:31:37.991Z,32.83
2023-02-27T19:34:06.115Z,38.97
2023-02-27T19:36:34.975Z,43.40
2023-02-27T19:39:05.498Z,48.77
2023-02-27T19:41:34.630Z,44.40
2023-02-27T19:44:02.467Z,50.70
2023-02-27T19:46:34.310Z,34.40
2023-02-27T19:49:05.821Z,26.30
2023-02-27T19:51:35.213Z,30.83
2023-02-27T19:54:04.492Z,32.23
2023-02-27T19:56:40.756Z,33.23
2023-02-27T19:59:12.087Z,41.20
2023-02-27T20:01:40.846Z,36.37
2023-02-27T20:04:13.858Z,39.93
2023-02-27T20:06:44.464Z,30.97
2023-02-27T20:09:18.390Z,41.67
2023-02-27T20:11:48.727Z,39.23
2023-02-27T20:14:18.686Z,28.00
2023-02-27T20:16:48.268Z,30.63
2023-02-27T20:19:20.633Z,32.80
2023-02-27T20:21:54.566Z,42.63
2023-02-27T20:24:22.499Z,28.13
2023-02-27T20:26:55.050Z,29.27
2023-02-27T20:29:26.301Z,32.37
2023-02-27T20:31:58.329Z,24.13
2023-02-27T20:34:27.286Z,24.77
2023-02-27T20:36:57.695Z,30.07
2023-02-27T20:39:26.172Z,31.90
2023-02-27T20:41:53.742Z,38.13
2023-02-27T20:44:21.268Z,38.43
2023-02-27T20:46:50.290Z,28.80
2023-02-27T20:49:18.441Z,25.47
2023-02-27T20:51:49.570Z,23.67
2023-02-27T20:54:20.856Z,51.67
2023-02-27T20:57:06.273Z,36.60
2023-02-27T20:59:34.571Z,40.53
2023-02-27T21:02:05.196Z,45.10
2023-02-27T21:04:47.350Z,31.27
2023-02-27T21:07:22.895Z,33.50
2023-02-27T21:09:54.246Z,31.93
2023-02-27T21:12:25.273Z,40.13
2023-02-27T21:14:54.283Z,39.53
2023-02-27T21:17:25.430Z,29.43
2023-02-27T21:19:57.089Z,36.47
2023-02-27T21:22:45.501Z,33.63
2023-02-27T21:25:15.464Z,27.37
2023-02-27T21:27:43.425Z,38.00
2023-02-27T21:30:14.532Z,26.60
2023-02-27T21:32:42.629Z,29.43
2023-02-27T21:35:12.190Z,30.47
2023-02-27T21:37:49.357Z,26.10
2023-02-27T21:40:19.793Z,29.23
2023-02-27T21:42:50.425Z,23.70
2023-02-27T21:45:21.803Z,30.90
2023-02-27T21:47:51.382Z,22.57
2023-02-27T21:50:23.048Z,30.90
2023-02-27T21:52:54.715Z,28.57
2023-02-27T21:55:23.578Z,30.53
2023-02-27T21:57:53.705Z,34.13
2023-02-27T22:00:26.998Z,50.17
2023-02-27T22:02:56.113Z,25.63
2023-02-27T22:05:26.442Z,22.40
2023-02-27T22:07:59.580Z,29.23
2023-02-27T22:10:48.008Z,22.40
2023-02-27T22:13:17.098Z,23.00
2023-02-27T22:15:44.803Z,33.60
2023-02-27T22:18:18.648Z,29.70
2023-02-27T22:20:47.949Z,21.63
2023-02-27T22:23:19.219Z,27.63
2023-02-27T22:25:48.225Z,30.90
2023-02-27T22:28:15.894Z,24.20
2023-02-27T22:30:43.510Z,39.37
2023-02-27T22:33:10.932Z,70.83
2023-02-27T22:35:39.832Z,34.93
2023-02-27T22:38:08.213Z,24.87
2023-02-27T22:40:36.205Z,28.47
2023-02-27T22:43:03.948Z,26.77
2023-02-27T22:45:31.417Z,23.10
2023-02-27T22:47:59.270Z,22.17
2023-02-27T22:50:26.904Z,19.40
2023-02-27T22:52:54.376Z,20.00
2023-02-27T22:55:21.895Z,23.47
2023-02-27T22:57:51.844Z,25.90
2023-02-27T23:00:20.858Z,23.33
2023-02-27T23:02:48.412Z,21.80
2023-02-27T23:05:16.021Z,25.07
2023-02-27T23:07:43.773Z,21.90
2023-02-27T23:10:13.162Z,20.37
2023-02-27T23:12:40.703Z,26.97
2023-02-27T23:15:09.455Z,24.43
2023-02-27T23:17:43.568Z,24.10
2023-02-27T23:20:17.019Z,21.53
2023-02-27T23:22:44.542Z,19.87
2023-02-27T23:25:12.070Z,21.00
2023-02-27T23:27:39.532Z,23.90
2023-02-27T23:30:08.188Z,20.13
2023-02-27T23:32:43.545Z,23.37
2023-02-27T23:35:12.655Z,24.83
2023-02-27T23:37:40.482Z,22.90
2023-02-27T23:40:09.593Z,17.13
2023-02-27T23:42:55.664Z,25.70
2023-02-27T23:45:23.260Z,20.00
2023-02-27T23:47:56.535Z,19.77
2023-02-27T23:50:37.706Z,16.43
2023-02-27T23:53:06.693Z,15.50
2023-02-27T23:55:38.049Z,16.17
2023-02-27T23:58:09.488Z,16.83
